Share

Dustin, OK

RAWS CLEARVIEW OK US (MCVWO2) Elev 979 ft | 35.43 °N, 96.20 °W | Change Station

Current weather conditions updated 25 minutes ago

Partly Cloudy
Partly Cloudy
71 °F
Feels Like 77 °F
N
2
Wind Variable Wind from NE
Gusts 8.0 mph
Sunrise 6:48 AM
Sunset 7:59 PM
Moon Waning Gibbous

Tomorrow is forecast to be nearly the same temperature as today.

Pressure 30.12 in
Visibility 10.0 miles
Clouds Few 7000 ft
Heat Index 77 °F
Dew Point 42 °F
Humidity 35%
Rainfall 0.00 in
Snow Depth Not available.
UV 1 out of 16
Pollen 8.70 out of 12
Air Quality Not available.
Flu Activity Regional
METAR KMLC 182353Z AUTO 06004KT 10SM FEW070 23/06 A3012 RMK AO2 SLP197 T02330056 10244 20217 56010

More Conditions Fewer Conditions

Pressure 30.12 in
Visibility 10.0 miles
Clouds Few 7000 ft
Heat Index 77 °F
Dew Point 42 °F
Humidity 35%
Rainfall 0.00 in
Snow Depth Not available.
UV 1 out of 16
Pollen 8.70 out of 12
Air Quality Not available.
Flu Activity Regional
METAR KMLC 182353Z AUTO 06004KT 10SM FEW070 23/06 A3012 RMK AO2 SLP197 T02330056 10244 20217 56010

More Conditions Fewer Conditions

10-Day Weather Forecast

Almanac

Astronomy

Apr. 18, 2014 Rise Set
Actual Time 6:48 AM CDT 7:59 PM CDT
Civil Twilight 6:21 AM CDT 8:25 PM CDT
Nautical Twilight 5:50 AM CDT 8:57 PM CDT
Astronomical Twilight 5:18 AM CDT 9:29 PM CDT
Moon 11:40 PM CDT (4/18) 9:16 AM CDT (4/18)
Length of Visible Light 14h 03m
Length of Day
13h 11m
Tomorrow will be 2m 4s longer.
Waning Gibbous, 84% of the Moon is Illuminated
Today
Waning Gibbous
Apr 22
Last Quarter
Apr 29
New
May 6
First Quarter
May 14
Full

Today's Extremes

State Highs State Lows

Community

  • Cloudy spring view
    Cloudy spring view
  • Old barn
    Old barn
  • What's for Lunch?
    What's for Lunch?
  • SUNRISE THROUGH THE TREES.
    SUNRISE THROUGH THE TREES.
  • Dog Wood Blossoms
    Dog Wood Blossoms

WunderPhotos

Upload Photos

1,702,549 photos uploaded!

WunderBlogs® & News

Nearby

Snow Depth

Station Depth Elevation
No new snow has been reported.

Coastal Water Temperatures

Place Temperature
No Stations Reporting

Earthquake Activity

City Distance Mag. Time & Date
Perry, Oklahoma 99 miles 2.5 1:42 PM CDT
2014-04-14
Perry, Oklahoma 99 miles 2.6 1:20 PM CDT
2014-04-14
Guthrie, Oklahoma 90 miles 3.0 8:17 AM CDT
2014-04-14
Guthrie, Oklahoma 89 miles 3.7 3:02 PM CDT
2014-04-13
Minimum magnitude displayed is 2.5.

Nearby Weather Stations

Station Location Temp. Heat Index Dew Point Humidity Wind Precip. Elev Updated Type
RAWS CLEARVIEW OK, Okemah, OK 71 °F 77 °F 42 °F 35% NE  at  2 mph 0.00 in / hr 979 ft 7:17 PM CDT MADIS
Emergency Operations Center, Holdenville, OK 72.1 °F 77 °F 46 °F 40% East  at  0.0 mph 0.00 in / hr 908 ft 7:40 PM CDT Normal
MesoWest MCALES , Crowder, OK 76 °F 74 °F - - North  at  - 0.00 in / hr 616 ft 6:30 PM CDT MADIS

Show More Stations Show Fewer Stations

What do you think?

We're not finished. Please let us know what you like, what you don't like, and what you are still missing.